Latest Coastal Weather Observations for Cape Borda

IDT60701

Issued at 4:52 pm EDT Wednesday 1 April 2015 (issued every 10 minutes, with the page automatically refreshed every 10 minutes)

About coastal observations | Map of coastal stations | Coastal observations for TAS | Marine services | Other Formats
Station Details ID: 022823 Name: CAPE BORDA Lat: -35.75 Lon: 136.60 Height: 158.0 m
Data from the previous 72 hours. | See also: Recent months at Cape Borda
Date/Time
EDT
Temp

°C
Wind Pressure Rain
since 9am
mm
Weather Cloud Vis
km
Sea
Height
m
Swell
Dir
 
Speed
knots
Gust
knots
hPa Trend Height
m
Period
s
Dir
01/04:30pm 16.4 WSW 12 16 1015.3 - 7.0 - - - - - - -
01/04:00pm 17.1 WSW 10 13 1015.1 - 6.2 - - - - - - -
01/03:30pm 16.8 WSW 9 12 1014.8 R 5.0 Drizzle Cloudy 2 1 4.2 8 SW
01/03:00pm 16.8 WSW 10 14 1015.0 - 3.2 - - - - - - -
01/02:30pm 17.0 SW 12 16 1014.7 - 2.0 - - - - - - -
01/02:00pm 17.0 SSW 13 17 1014.5 - 1.8 - - - - - - -
01/01:30pm 16.8 SSW 15 22 1014.7 - 1.4 - - - - - - -
01/01:00pm 18.1 SSW 17 25 1014.2 - 0.0 - - - - - - -
01/12:30pm 18.7 SSW 17 23 1014.7 - 0.0 - - - - - - -
01/12:00pm 18.0 SW 12 19 1014.9 - 0.0 - - - - - - -
01/11:30am 19.2 W 10 12 1014.4 - 0.0 - - - - - - -
01/11:00am 20.6 NW 10 14 1014.0 - 0.0 - - - - - - -
01/10:30am 20.1 NNW 9 13 1013.6 - 0.0 - - - - - - -
01/10:00am 19.6 NNW 9 11 1013.6 - 0.0 - - - - - - -
01/09:30am 19.9 N 11 19 1013.1 F 0.0 Fine Cloudy 25 <0.5 4.2 9 SW
01/09:00am 20.1 NNE 12 19 1012.8 - 0.0 - - - - - - -
01/08:30am 20.4 NNE 13 19 1012.8 - 0.0 - - - - - - -
01/08:12am 21.5 NNE 15 25 1012.8 - 0.0 - - - - - - -
01/08:00am 21.0 NNE 12 17 1013.0 - 0.0 - - - - - - -
01/07:30am 21.2 NE 12 15 1013.1 - 0.0 - - - - - - -
01/07:00am 20.9 NE 11 17 1013.5 - 0.0 - - - - - - -
01/06:30am 20.6 NE 12 16 1013.7 - 0.0 - - - - - - -
01/06:00am 20.5 NE 11 16 1013.7 - 0.0 - - - - - - -
01/05:30am 20.8 NE 12 17 1013.8 - 0.0 - - - - - - -
01/05:00am 21.9 NE 12 18 1014.2 - 0.0 - - - - - - -
01/04:30am 22.0 ENE 13 17 1014.6 - 0.0 - - - - - - -
01/04:00am 21.6 ENE 14 19 1015.1 - 0.0 - - - - - - -
01/03:30am 21.4 ENE 13 18 1015.2 - 0.0 - - - - - - -
01/03:00am 21.2 ENE 14 21 1015.9 - 0.0 - - - - - - -
01/02:30am 21.2 ENE 13 17 1016.2 - 0.0 - - - - - - -
01/02:00am 21.2 ENE 13 18 1016.6 - 0.0 - - - - - - -
01/01:30am 22.0 ENE 13 17 1016.8 - 0.0 - - - - - - -
01/01:00am 22.2 ENE 11 15 1017.1 - 0.0 - - - - - - -
01/12:30am 21.6 E 11 14 1017.3 - 0.0 - - - - - - -
01/12:00am 21.6 ENE 10 13 1017.9 - 0.0 - - - - - - -
 
Date/Time
EDT
Temp

°C
Wind Pressure Rain
since 9am
mm
Weather Cloud Vis
km
Sea
Height
m
Swell
Dir
 
Speed
knots
Gust
knots
hPa Trend Height
m
Period
s
Dir
31/11:30pm 21.8 ENE 10 13 1018.2 - 0.0 - - - - - - -
31/11:00pm 22.0 ENE 10 12 1018.3 - 0.0 - - - - - - -
31/10:30pm 22.0 ENE 10 13 1018.5 - 0.0 - - - - - - -
31/10:00pm 21.7 ENE 10 11 1018.8 - 0.0 - - - - - - -
31/09:30pm 21.5 ENE 9 12 1018.8 - 0.0 - - - - - - -
31/09:00pm 21.4 ENE 8 10 1018.9 - 0.0 - - - - - - -
31/08:30pm 21.4 ENE 9 11 1018.9 - 0.0 - - - - - - -
31/08:00pm 21.4 ENE 9 10 1018.9 - 0.0 - - - - - - -
31/07:30pm 21.1 ENE 9 11 1018.9 - 0.0 - - - - - - -
31/07:00pm 21.5 ENE 9 10 1018.9 - 0.0 - - - - - - -
31/06:30pm 22.9 ENE 9 12 1018.6 - 0.0 - - - - - - -
31/06:00pm 22.7 ENE 9 12 1018.9 - 0.0 - - - - - - -
31/05:30pm 24.1 ENE 10 15 1019.0 - 0.0 - - - - - - -
31/05:00pm 22.8 NE 9 13 1019.3 - 0.0 - - - - - - -
31/04:30pm 22.9 NE 12 16 1019.6 - 0.0 - - - - - - -
31/04:00pm 23.2 NE 12 15 1019.6 - 0.0 - - - - - - -
31/03:30pm 22.6 NE 12 16 1019.7 F 0.0 Fine Mostly cloudy 20 <0.1 4.8 14 SW
31/03:00pm 22.1 NE 12 15 1020.5 - 0.0 - - - - - - -
31/02:30pm 23.0 NE 12 16 1020.8 - 0.0 - - - - - - -
31/02:00pm 22.6 NE 12 17 1021.3 - 0.0 - - - - - - -
31/01:30pm 22.6 NE 14 18 1021.7 - 0.0 - - - - - - -
31/01:00pm 22.1 NE 14 19 1022.0 - 0.0 - - - - - - -
31/12:30pm 21.7 ENE 15 21 1022.3 - 0.0 - - - - - - -
31/12:00pm 21.1 NE 15 21 1022.9 - 0.0 - - - - - - -
31/11:30am 20.4 NE 15 21 1023.2 - 0.0 - - - - - - -
31/11:00am 20.1 NE 15 20 1023.3 - 0.0 - - - - - - -
31/10:30am 19.4 ENE 16 22 1023.2 - 0.0 - - - - - - -
31/10:00am 18.6 ENE 16 21 1023.2 - 0.0 - - - - - - -
31/09:30am 18.0 ENE 15 20 1022.9 F 0.2 Fine Clear 20 1 5.5 14 SW
31/09:00am 17.6 ENE 15 20 1022.8 - 0.2 - - - - - - -
31/08:30am 17.1 ENE 13 18 1022.6 - 0.2 - - - - - - -
31/08:00am 17.0 ENE 13 19 1022.3 - 0.2 - - - - - - -
31/07:30am 17.0 ENE 14 19 1022.2 - 0.2 - - - - - - -
31/07:00am 16.6 ENE 13 18 1022.1 - 0.2 - - - - - - -
31/06:30am 16.6 ENE 13 18 1022.2 - 0.2 - - - - - - -
31/06:00am 16.4 ENE 12 17 1022.2 - 0.2 - - - - - - -
31/05:30am 16.5 ENE 11 14 1022.6 - 0.2 - - - - - - -
31/05:00am 16.2 ENE 10 13 1022.9 - 0.2 - - - - - - -
31/04:30am 15.9 E 10 11 1023.2 - 0.2 - - - - - - -
31/04:00am 15.6 E 10 12 1023.6 - 0.2 - - - - - - -
31/03:30am 15.7 ENE 10 12 1023.7 - 0.2 - - - - - - -
31/03:00am 15.8 E 10 11 1024.2 - 0.2 - - - - - - -
31/02:30am 15.7 ENE 10 12 1024.0 - 0.2 - - - - - - -
31/02:00am 14.7 E 10 11 1023.9 - 0.2 - - - - - - -
31/01:30am 14.8 E 9 11 1024.0 - 0.2 - - - - - - -
31/01:00am 14.6 E 10 11 1023.7 - 0.2 - - - - - - -
31/12:30am 14.3 E 10 11 1024.0 - 0.2 - - - - - - -
31/12:00am 14.8 E 10 12 1024.3 - 0.2 - - - - - - -
 
Date/Time
EDT
Temp

°C
Wind Pressure Rain
since 9am
mm
Weather Cloud Vis
km
Sea
Height
m
Swell
Dir
 
Speed
knots
Gust
knots
hPa Trend Height
m
Period
s
Dir
30/11:30pm 15.2 E 10 13 1024.7 - 0.2 - - - - - - -
30/11:00pm 14.4 ESE 9 12 1024.6 - 0.2 - - - - - - -
30/10:30pm 14.6 ESE 10 12 1024.5 - 0.2 - - - - - - -
30/10:00pm 14.8 ESE 9 11 1024.5 - 0.2 - - - - - - -
30/09:30pm 15.2 ESE 9 11 1024.5 - 0.2 - - - - - - -
30/09:00pm 15.7 SE 9 10 1024.6 - 0.2 - - - - - - -
30/08:30pm 16.4 SE 8 9 1024.3 - 0.2 - - - - - - -
30/08:00pm 17.7 SSE 7 9 1024.2 - 0.2 - - - - - - -
30/07:30pm 19.5 S 7 9 1024.0 - 0.2 - - - - - - -
30/07:00pm 20.6 S 6 9 1023.9 - 0.2 - - - - - - -
30/06:30pm 20.7 SSW 7 9 1023.7 - 0.2 - - - - - - -
30/06:00pm 20.9 SW 8 10 1024.0 - 0.2 - - - - - - -
30/05:30pm 20.9 SW 8 11 1024.0 - 0.2 - - - - - - -
30/05:00pm 21.3 WSW 6 9 1023.9 - 0.2 - - - - - - -
30/04:30pm 20.6 W 6 8 1024.1 - 0.2 - - - - - - -
30/04:00pm 20.6 WNW 5 8 1024.2 - 0.2 - - - - - - -
30/03:30pm 20.0 NNW 6 8 1024.2 R 0.2 Fine Mostly clear 25 <0.1 5.2 11 SW
30/03:00pm 19.4 NNW 6 8 1024.6 - 0.2 - - - - - - -
30/02:30pm 19.6 N 8 10 1024.8 - 0.2 - - - - - - -
30/02:00pm 20.0 NNE 7 9 1024.9 - 0.2 - - - - - - -
30/01:30pm 20.3 N 7 9 1025.2 - 0.0 - - - - - - -
30/01:00pm 19.6 N 7 10 1025.3 - 0.0 - - - - - - -
30/12:30pm 19.4 N 7 10 1025.1 - 0.0 - - - - - - -
30/12:00pm 19.0 NNE 7 9 1025.6 - 0.0 - - - - - - -
30/11:30am 18.3 N 7 8 1025.9 - 0.0 - - - - - - -
30/11:00am 18.4 N 5 7 1025.9 - 0.0 - - - - - - -
30/10:30am 17.4 S 3 5 1025.9 - 0.0 - - - - - - -
30/10:00am 16.9 SSE 2 4 1025.7 - 0.0 - - - - - - -
30/09:30am 16.1 SSE 1 3 1025.2 R 0.0 Haze Mostly clear 18 <0.1 3.5 10 SW
30/09:00am 14.7 SSE 5 5 1024.9 - 0.0 - - - - - - -
30/08:30am 13.1 SSE 5 6 1024.6 - 0.0 - - - - - - -
30/08:00am 12.6 SSE 6 6 1024.1 - 0.0 - - - - - - -
30/07:30am 12.9 SSE 7 7 1023.8 - 0.0 - - - - - - -
30/07:00am 12.9 SSE 7 8 1023.6 - 0.0 - - - - - - -
30/06:30am 13.0 S 7 8 1023.2 - 0.0 - - - - - - -
30/06:00am 13.2 S 6 7 1023.3 - 0.0 - - - - - - -
30/05:30am 12.9 S 7 7 1023.2 - 0.0 - - - - - - -
30/05:00am 13.2 S 5 6 1023.1 - 0.0 - - - - - - -
30/04:30am 13.2 S 5 6 1023.1 - 0.0 - - - - - - -
30/04:00am 13.2 S 6 6 1023.1 - 0.0 - - - - - - -
30/03:30am 13.4 SSE 4 4 1023.1 - 0.0 - - - - - - -
30/03:00am 13.3 S 4 5 1023.6 - 0.0 - - - - - - -
30/02:30am 13.1 S 5 6 1023.6 - 0.0 - - - - - - -
30/02:00am 13.5 S 5 5 1023.6 - 0.0 - - - - - - -
30/01:30am 13.8 S 6 7 1023.6 - 0.0 - - - - - - -
30/01:00am 14.1 S 8 8 1023.7 - 0.0 - - - - - - -
30/12:30am 14.6 S 7 8 1023.7 - 0.0 - - - - - - -
30/12:00am 14.4 SSW 7 8 1024.1 - 0.0 - - - - - - -
 
Date/Time
EDT
Temp

°C
Wind Pressure Rain
since 9am
mm
Weather Cloud Vis
km
Sea
Height
m
Swell
Dir
 
Speed
knots
Gust
knots
hPa Trend Height
m
Period
s
Dir
29/11:30pm 14.6 SSW 8 9 1024.3 - 0.0 - - - - - - -
29/11:00pm 14.6 SW 9 9 1024.4 - 0.0 - - - - - - -
29/10:30pm 14.6 SSW 7 8 1024.1 - 0.0 - - - - - - -
29/10:00pm 14.6 SSW 7 8 1023.9 - 0.0 - - - - - - -
29/09:30pm 14.8 SSW 7 8 1023.3 - 0.0 - - - - - - -
29/09:00pm 15.1 SSW 7 8 1023.2 - 0.0 - - - - - - -
29/08:30pm 15.6 SSW 7 8 1023.0 - 0.0 - - - - - - -
29/08:00pm 16.3 SW 7 8 1022.7 - 0.0 - - - - - - -
29/07:30pm 17.8 WSW 7 10 1022.5 - 0.0 - - - - - - -
29/07:00pm 18.5 W 9 11 1022.3 - 0.0 - - - - - - -
29/06:30pm 18.9 W 8 11 1022.0 - 0.0 - - - - - - -
29/06:00pm 19.0 WSW 9 11 1022.1 - 0.0 - - - - - - -
29/05:30pm 19.9 W 7 10 1022.1 - 0.0 - - - - - - -

Other Formats:

Comma delimited format used in spreadsheet applications
http://www.bom.gov.au/fwo/IDT60701/IDT60701.95805.axf

JavaScript Object Notation format (JSON) in row-major order
http://www.bom.gov.au/fwo/IDT60701/IDT60701.95805.json